createdAt,value
2022-11-29T00:01:04.670Z,101506.28
2022-11-29T00:03:33.185Z,101514.09
2022-11-29T00:06:08.431Z,101508.16
2022-11-29T00:08:36.164Z,101510.75
2022-11-29T00:11:07.585Z,101506.47
2022-11-29T00:13:34.441Z,101512.38
2022-11-29T00:16:09.460Z,101516.72
2022-11-29T00:18:36.634Z,101513.22
2022-11-29T00:21:07.526Z,101511.53
2022-11-29T00:23:34.922Z,101517.69
2022-11-29T00:26:06.335Z,101517.69
2022-11-29T00:28:34.305Z,101518.53
2022-11-29T00:31:01.058Z,101526.25
2022-11-29T00:33:27.651Z,101524.53
2022-11-29T00:35:54.253Z,101527.13
2022-11-29T00:38:20.815Z,101519.38
2022-11-29T00:40:51.733Z,101520.22
2022-11-29T00:43:18.406Z,101527.19
2022-11-29T00:45:44.910Z,101527.19
2022-11-29T00:48:11.454Z,101526.22
2022-11-29T00:50:37.972Z,101525.38
2022-11-29T00:53:04.519Z,101522.69
2022-11-29T00:55:30.996Z,101525.38
2022-11-29T00:57:58.119Z,101524.47
2022-11-29T01:00:24.646Z,101521.00
2022-11-29T01:02:51.178Z,101522.78
2022-11-29T01:05:17.727Z,101522.78
2022-11-29T01:07:44.293Z,101520.16
2022-11-29T01:10:11.043Z,101522.66
2022-11-29T01:12:38.517Z,101526.16
2022-11-29T01:15:06.944Z,101526.97
2022-11-29T01:17:37.787Z,101533.97
2022-11-29T01:20:09.128Z,101539.25
2022-11-29T01:22:35.997Z,101538.53
2022-11-29T01:25:03.389Z,101533.31
2022-11-29T01:27:30.220Z,101527.13
2022-11-29T01:29:56.698Z,101539.25
2022-11-29T01:32:23.233Z,101533.19
2022-11-29T01:34:50.524Z,101540.28
2022-11-29T01:37:17.027Z,101544.56
2022-11-29T01:39:43.590Z,101548.03
2022-11-29T01:42:13.959Z,101554.16
2022-11-29T01:44:46.895Z,101552.41
2022-11-29T01:47:13.656Z,101555.84
2022-11-29T01:49:46.774Z,101552.44
2022-11-29T01:52:19.513Z,101556.75
2022-11-29T01:54:50.786Z,101557.66
2022-11-29T01:57:18.694Z,101562.03
2022-11-29T01:59:50.149Z,101561.97
2022-11-29T02:02:40.011Z,101564.59
2022-11-29T02:05:07.253Z,101569.00
2022-11-29T02:07:34.071Z,101566.38
2022-11-29T02:10:01.933Z,101567.22
2022-11-29T02:12:50.666Z,101568.03
2022-11-29T02:15:46.156Z,101571.59
2022-11-29T02:18:22.305Z,101569.09
2022-11-29T02:20:57.462Z,101563.91
2022-11-29T02:23:51.230Z,101562.25
2022-11-29T02:26:49.967Z,101567.47
2022-11-29T02:29:31.699Z,101567.53
2022-11-29T02:32:16.951Z,101577.16
2022-11-29T02:35:05.237Z,101572.81
2022-11-29T02:37:53.467Z,101577.16
2022-11-29T02:40:33.167Z,101582.38
2022-11-29T02:43:27.894Z,101584.94
2022-11-29T02:46:16.416Z,101581.53
2022-11-29T02:49:41.781Z,101584.22
2022-11-29T02:52:15.808Z,101582.56
2022-11-29T02:54:54.745Z,101589.53
2022-11-29T02:57:38.292Z,101591.34
2022-11-29T03:00:11.283Z,101598.19
2022-11-29T03:02:49.528Z,101600.75
2022-11-29T03:05:22.056Z,101604.25
2022-11-29T03:07:54.023Z,101606.84
2022-11-29T03:10:38.715Z,101603.47
2022-11-29T03:13:15.803Z,101607.97
2022-11-29T03:16:03.205Z,101607.09
2022-11-29T03:18:38.710Z,101605.41
2022-11-29T03:21:39.473Z,101607.16
2022-11-29T03:24:13.658Z,101614.97
2022-11-29T03:26:45.194Z,101611.56
2022-11-29T03:29:37.937Z,101616.78
2022-11-29T03:32:10.445Z,101622.97
2022-11-29T03:35:02.149Z,101629.97
2022-11-29T03:37:56.740Z,101631.00
2022-11-29T03:40:51.230Z,101635.31
2022-11-29T03:43:33.496Z,101636.22
2022-11-29T03:46:07.055Z,101634.50
2022-11-29T03:48:37.707Z,101637.91
2022-11-29T03:51:13.938Z,101636.94
2022-11-29T03:53:47.202Z,101643.03
2022-11-29T03:56:35.835Z,101644.91
2022-11-29T03:59:30.002Z,101654.47
2022-11-29T04:02:34.303Z,101657.94
2022-11-29T04:05:37.623Z,101657.94
2022-11-29T04:08:12.995Z,101655.34
2022-11-29T04:11:22.892Z,101652.78
2022-11-29T04:14:12.423Z,101661.47
2022-11-29T04:16:54.664Z,101660.59
2022-11-29T04:20:00.146Z,101658.91
2022-11-29T04:23:01.753Z,101658.19
2022-11-29T04:25:37.087Z,101661.63
2022-11-29T04:28:33.362Z,101667.72
2022-11-29T04:31:08.996Z,101672.16
2022-11-29T04:33:41.282Z,101667.91
2022-11-29T04:36:33.971Z,101672.28
2022-11-29T04:39:29.655Z,101672.31
2022-11-29T04:42:26.521Z,101671.41
2022-11-29T04:45:08.356Z,101681.84
2022-11-29T04:47:49.139Z,101681.88
2022-11-29T04:50:35.738Z,101682.78
2022-11-29T04:53:11.799Z,101679.34
2022-11-29T04:55:59.840Z,101683.72
2022-11-29T04:59:01.677Z,101694.06
2022-11-29T05:01:46.523Z,101696.75
2022-11-29T05:04:26.074Z,101695.06
2022-11-29T05:07:09.809Z,101697.59
2022-11-29T05:09:59.756Z,101708.91
2022-11-29T05:12:49.134Z,101707.13
2022-11-29T05:15:45.084Z,101704.63
2022-11-29T05:18:14.682Z,101721.00
2022-11-29T05:20:53.525Z,101717.59
2022-11-29T05:23:57.753Z,101717.59
2022-11-29T05:26:33.766Z,101723.59
2022-11-29T05:29:05.804Z,101725.38
2022-11-29T05:31:54.215Z,101728.84
2022-11-29T05:34:37.882Z,101729.72
2022-11-29T05:37:21.982Z,101730.56
2022-11-29T05:40:23.786Z,101727.06
2022-11-29T05:43:19.402Z,101729.59
2022-11-29T05:46:04.922Z,101741.84
2022-11-29T05:48:52.862Z,101741.84
2022-11-29T05:51:50.305Z,101740.00
2022-11-29T05:54:46.952Z,101748.63
2022-11-29T05:57:45.708Z,101753.94
2022-11-29T06:00:18.841Z,101757.44
2022-11-29T06:03:06.567Z,101759.25
2022-11-29T06:05:49.876Z,101767.97
2022-11-29T06:08:25.306Z,101759.25
2022-11-29T06:11:32.909Z,101771.41
2022-11-29T06:14:36.804Z,101773.19
2022-11-29T06:17:25.853Z,101770.59
2022-11-29T06:20:36.114Z,101767.13
2022-11-29T06:23:05.898Z,101773.22
2022-11-29T06:25:43.259Z,101774.03
2022-11-29T06:28:27.298Z,101777.47
2022-11-29T06:31:15.102Z,101780.88
2022-11-29T06:33:56.257Z,101777.47
2022-11-29T06:36:35.951Z,101791.50
2022-11-29T06:39:02.806Z,101789.00
2022-11-29T06:41:29.852Z,101796.78
2022-11-29T06:43:56.754Z,101791.59
2022-11-29T06:46:41.413Z,101801.06
2022-11-29T06:49:28.481Z,101798.41
2022-11-29T06:52:20.322Z,101799.31
2022-11-29T06:55:09.399Z,101814.94
2022-11-29T06:57:54.091Z,101813.16
2022-11-29T07:00:23.603Z,101822.56
2022-11-29T07:03:17.902Z,101821.00
2022-11-29T07:05:46.475Z,101826.19
2022-11-29T07:08:18.972Z,101821.84
2022-11-29T07:10:49.966Z,101826.19
2022-11-29T07:13:18.454Z,101831.47
2022-11-29T07:16:07.609Z,101838.31
2022-11-29T07:18:46.683Z,101840.97
2022-11-29T07:22:04.682Z,101843.63
2022-11-29T07:24:44.680Z,101847.88
2022-11-29T07:27:17.504Z,101859.94
2022-11-29T07:30:20.034Z,101857.34
2022-11-29T07:33:23.165Z,101857.44
2022-11-29T07:35:58.523Z,101861.78
2022-11-29T07:38:48.997Z,101873.91
2022-11-29T07:41:35.915Z,101872.22
2022-11-29T07:44:17.061Z,101870.53
2022-11-29T07:46:43.598Z,101879.22
2022-11-29T07:49:11.388Z,101884.50
2022-11-29T07:51:38.363Z,101885.47
2022-11-29T07:54:05.871Z,101881.97
2022-11-29T07:56:32.704Z,101880.22
2022-11-29T07:59:00.169Z,101888.88
2022-11-29T08:01:29.671Z,101895.84
2022-11-29T08:03:56.242Z,101896.84
2022-11-29T08:06:26.276Z,101902.13
2022-11-29T08:08:52.933Z,101904.75
2022-11-29T08:11:21.933Z,101908.28
2022-11-29T08:13:48.548Z,101909.25
2022-11-29T08:16:18.547Z,101911.88
2022-11-29T08:18:45.195Z,101911.84
2022-11-29T08:21:11.791Z,101907.59
2022-11-29T08:23:38.485Z,101908.34
2022-11-29T08:26:07.195Z,101913.47
2022-11-29T08:28:33.861Z,101915.13
2022-11-29T08:31:06.781Z,101914.16
2022-11-29T08:33:39.159Z,101918.25
2022-11-29T08:36:07.554Z,101919.16
2022-11-29T08:38:34.153Z,101916.47
2022-11-29T08:41:04.885Z,101917.31
2022-11-29T08:43:45.293Z,101917.28
2022-11-29T08:46:17.998Z,101917.28
2022-11-29T08:48:46.847Z,101912.84
2022-11-29T08:52:23.036Z,101922.28
2022-11-29T08:54:49.532Z,101927.28
2022-11-29T08:57:39.316Z,101922.09
2022-11-29T09:00:06.212Z,101930.66
2022-11-29T09:02:33.039Z,101933.22
2022-11-29T09:05:04.739Z,101934.00
2022-11-29T09:07:31.459Z,101936.56
2022-11-29T09:09:57.971Z,101933.13
2022-11-29T09:12:24.862Z,101936.66
2022-11-29T09:14:51.387Z,101940.09
2022-11-29T09:17:17.987Z,101934.66
2022-11-29T09:19:45.418Z,101941.50
2022-11-29T09:22:12.175Z,101940.50
2022-11-29T09:24:38.723Z,101943.22
2022-11-29T09:27:06.251Z,101943.19
2022-11-29T09:29:33.035Z,101948.28
2022-11-29T09:32:00.520Z,101949.88
2022-11-29T09:34:27.138Z,101956.66
2022-11-29T09:36:53.901Z,101955.75
2022-11-29T09:39:23.618Z,101956.59
2022-11-29T09:42:33.790Z,101977.44
2022-11-29T09:45:10.725Z,101975.78
2022-11-29T09:48:12.666Z,101973.06
2022-11-29T09:51:09.617Z,101970.28
2022-11-29T09:54:00.489Z,101980.56
2022-11-29T09:56:46.526Z,101984.88
2022-11-29T09:59:28.979Z,101985.63
2022-11-29T10:02:21.124Z,101985.53
2022-11-29T10:04:54.342Z,101989.91
2022-11-29T10:07:25.076Z,101990.84
2022-11-29T10:10:02.307Z,101986.28
2022-11-29T10:12:38.866Z,101999.38
2022-11-29T10:15:27.348Z,101995.03
2022-11-29T10:18:18.448Z,101999.38
2022-11-29T10:20:50.671Z,101996.63
2022-11-29T10:23:45.490Z,101995.63
2022-11-29T10:26:14.847Z,101985.72
2022-11-29T10:28:49.475Z,101988.09
2022-11-29T10:31:42.694Z,101988.75
2022-11-29T10:34:14.783Z,101984.25
2022-11-29T10:36:50.926Z,101992.19
2022-11-29T10:39:37.145Z,101989.59
2022-11-29T10:42:06.865Z,101990.53
2022-11-29T10:44:33.953Z,101991.16
2022-11-29T10:47:09.232Z,101996.97
2022-11-29T10:49:37.826Z,101992.97
2022-11-29T10:52:05.550Z,101996.78
2022-11-29T10:54:39.958Z,101990.91
2022-11-29T10:57:15.547Z,101992.50
2022-11-29T10:59:58.092Z,101987.28
2022-11-29T11:02:24.597Z,101985.38
2022-11-29T11:04:51.861Z,101993.78
2022-11-29T11:07:32.069Z,101995.34
2022-11-29T11:09:59.695Z,101990.13
2022-11-29T11:12:31.993Z,101988.53
2022-11-29T11:15:37.957Z,101990.13
2022-11-29T11:18:06.635Z,101984.31
2022-11-29T11:20:36.559Z,101990.06
2022-11-29T11:23:20.777Z,101984.66
2022-11-29T11:25:50.114Z,101987.78
2022-11-29T11:28:25.184Z,101983.31
2022-11-29T11:30:55.936Z,101993.75
2022-11-29T11:33:29.593Z,101995.53
2022-11-29T11:36:04.490Z,101996.91
2022-11-29T11:38:32.056Z,101996.56
2022-11-29T11:41:18.648Z,102001.00
2022-11-29T11:44:00.549Z,101995.28
2022-11-29T11:46:47.441Z,102003.00
2022-11-29T11:49:24.286Z,102007.00
2022-11-29T11:51:51.039Z,102002.00
2022-11-29T11:54:17.781Z,102003.16
2022-11-29T11:56:44.520Z,102001.50
2022-11-29T11:59:24.444Z,102005.97
2022-11-29T12:01:51.411Z,102007.09
2022-11-29T12:04:33.939Z,102008.75
2022-11-29T12:07:14.336Z,102011.84
2022-11-29T12:09:46.334Z,102019.63
2022-11-29T12:12:23.509Z,102013.44
2022-11-29T12:15:02.281Z,102017.94
2022-11-29T12:17:39.774Z,102019.00
2022-11-29T12:20:39.161Z,102024.94
2022-11-29T12:23:11.860Z,102018.56
2022-11-29T12:26:54.925Z,102026.31
2022-11-29T12:29:16.127Z,102030.34
2022-11-29T12:32:04.335Z,102036.25
2022-11-29T12:35:07.077Z,102042.28
2022-11-29T12:37:47.133Z,102036.06
2022-11-29T12:40:22.319Z,102038.63
2022-11-29T12:42:54.543Z,102035.72
2022-11-29T12:45:26.160Z,102041.50
2022-11-29T12:48:05.243Z,102044.25
2022-11-29T12:50:51.859Z,102056.56
2022-11-29T12:53:27.553Z,102050.34
2022-11-29T12:56:05.037Z,102052.06
2022-11-29T12:58:41.328Z,102058.06
2022-11-29T13:01:37.125Z,102064.28
2022-11-29T13:04:38.398Z,102058.19
2022-11-29T13:08:00.461Z,102056.50
2022-11-29T13:10:58.244Z,102054.72
2022-11-29T13:13:48.637Z,102058.06
2022-11-29T13:16:41.779Z,102061.69
2022-11-29T13:26:25.743Z,102068.72
2022-11-29T13:33:58.818Z,102065.41
2022-11-29T13:36:38.175Z,102066.16
2022-11-29T13:40:18.001Z,102068.53
2022-11-29T13:59:47.387Z,102078.81
2022-11-29T14:14:26.166Z,102078.25
2022-11-29T14:16:58.487Z,102071.31
2022-11-29T14:19:34.326Z,102068.09
2022-11-29T14:22:06.883Z,102071.72
2022-11-29T14:24:35.184Z,102072.03
2022-11-29T14:27:12.333Z,102077.38
2022-11-29T14:29:47.996Z,102081.03
2022-11-29T14:32:55.634Z,102077.78
2022-11-29T14:35:32.285Z,102079.75
2022-11-29T14:38:06.856Z,102078.31
2022-11-29T14:40:42.114Z,102086.44
2022-11-29T14:43:36.916Z,102082.34
2022-11-29T14:46:15.669Z,102090.34
2022-11-29T14:48:47.114Z,102089.59
2022-11-29T14:51:17.794Z,102093.06
2022-11-29T14:53:47.270Z,102092.31
2022-11-29T14:56:29.650Z,102092.38
2022-11-29T14:59:44.492Z,102083.00
2022-11-29T15:02:20.065Z,102085.81
2022-11-29T15:04:51.090Z,102087.75
2022-11-29T15:07:23.288Z,102086.25
2022-11-29T15:09:53.097Z,102089.03
2022-11-29T15:12:26.711Z,102093.56
2022-11-29T15:15:18.739Z,102086.78
2022-11-29T15:17:56.063Z,102092.25
2022-11-29T15:20:34.603Z,102096.72
2022-11-29T15:23:08.831Z,102097.72
2022-11-29T15:25:39.034Z,102100.47
2022-11-29T15:28:06.855Z,102103.19
2022-11-29T15:30:37.083Z,102101.59
2022-11-29T15:33:18.959Z,102109.59
2022-11-29T15:35:52.314Z,102101.84
2022-11-29T15:38:20.299Z,102111.31
2022-11-29T15:40:53.160Z,102104.09
2022-11-29T15:43:40.147Z,102106.81
2022-11-29T15:46:28.309Z,102114.69
2022-11-29T15:49:16.422Z,102118.22
2022-11-29T15:51:46.325Z,102125.09
2022-11-29T15:54:28.956Z,102120.75
2022-11-29T15:57:03.250Z,102123.38
2022-11-29T15:59:38.650Z,102128.50
2022-11-29T16:02:24.934Z,102130.16
2022-11-29T16:04:57.561Z,102132.75
2022-11-29T16:07:25.916Z,102124.09
2022-11-29T16:09:59.986Z,102126.72
2022-11-29T16:12:27.552Z,102131.84
2022-11-29T16:14:59.954Z,102131.81
2022-11-29T16:17:29.703Z,102133.53
2022-11-29T16:20:17.324Z,102139.63
2022-11-29T16:22:44.150Z,102135.28
2022-11-29T16:25:18.980Z,102135.28
2022-11-29T16:27:46.253Z,102139.59
2022-11-29T16:30:25.650Z,102136.09
2022-11-29T16:33:00.457Z,102140.44
2022-11-29T16:35:36.124Z,102143.00
2022-11-29T16:38:06.247Z,102140.41
2022-11-29T16:40:41.839Z,102142.16
2022-11-29T16:43:45.391Z,102151.72
2022-11-29T16:46:21.333Z,102143.00
2022-11-29T16:48:52.627Z,102149.13
2022-11-29T16:51:23.882Z,102145.69
2022-11-29T16:53:53.101Z,102147.41
2022-11-29T16:56:24.858Z,102148.31
2022-11-29T16:59:17.169Z,102149.22
2022-11-29T17:01:46.764Z,102147.53
2022-11-29T17:04:23.828Z,102151.84
2022-11-29T17:06:53.494Z,102150.09
2022-11-29T17:09:26.059Z,102155.34
2022-11-29T17:11:53.592Z,102156.28
2022-11-29T17:14:20.234Z,102152.91
2022-11-29T17:16:49.735Z,102159.81
2022-11-29T17:19:16.697Z,102161.50
2022-11-29T17:21:43.293Z,102162.34
2022-11-29T17:24:12.535Z,102162.41
2022-11-29T17:26:40.191Z,102161.56
2022-11-29T17:29:07.319Z,102162.41
2022-11-29T17:31:34.000Z,102165.03
2022-11-29T17:34:01.065Z,102164.16
2022-11-29T17:36:28.009Z,102167.63
2022-11-29T17:38:55.832Z,102172.84
2022-11-29T17:41:24.587Z,102174.59
2022-11-29T17:43:53.377Z,102172.75
2022-11-29T17:46:24.229Z,102175.34
2022-11-29T17:48:54.387Z,102176.19
2022-11-29T17:51:50.633Z,102173.63
2022-11-29T17:54:11.957Z,102175.34
2022-11-29T17:56:38.460Z,102180.47
2022-11-29T17:59:05.885Z,102181.41
2022-11-29T18:01:34.843Z,102177.94
2022-11-29T18:04:02.878Z,102176.97
2022-11-29T18:06:35.663Z,102181.25
2022-11-29T18:09:04.415Z,102190.00
2022-11-29T18:11:42.913Z,102188.28
2022-11-29T18:14:15.761Z,102187.47
2022-11-29T18:16:45.141Z,102190.91
2022-11-29T18:19:16.339Z,102198.69
2022-11-29T18:21:43.518Z,102193.50
2022-11-29T18:24:14.569Z,102212.56
2022-11-29T18:26:41.833Z,102206.44
2022-11-29T18:29:09.283Z,102204.69
2022-11-29T18:31:38.229Z,102214.28
2022-11-29T18:34:09.547Z,102211.72
2022-11-29T18:36:49.094Z,102214.34
2022-11-29T18:39:17.804Z,102206.53
2022-11-29T18:41:47.071Z,102216.97
2022-11-29T18:44:15.491Z,102215.22
2022-11-29T18:46:43.776Z,102215.25
2022-11-29T18:49:13.580Z,102216.97
2022-11-29T18:51:42.937Z,102223.84
2022-11-29T18:54:09.843Z,102221.25
2022-11-29T18:56:37.544Z,102223.03
2022-11-29T18:59:07.917Z,102216.06
2022-11-29T19:01:37.896Z,102223.94
2022-11-29T19:04:04.717Z,102223.06
2022-11-29T19:06:39.394Z,102229.97
2022-11-29T19:09:09.646Z,102235.97
2022-11-29T19:11:38.826Z,102233.41
2022-11-29T19:14:11.464Z,102233.44
2022-11-29T19:16:40.133Z,102224.84
2022-11-29T19:19:06.896Z,102227.34
2022-11-29T19:21:34.626Z,102231.69
2022-11-29T19:24:07.716Z,102229.06
2022-11-29T19:26:34.561Z,102232.50
2022-11-29T19:29:01.751Z,102227.28
2022-11-29T19:31:28.935Z,102233.34
2022-11-29T19:33:57.151Z,102230.75
2022-11-29T19:36:28.861Z,102235.97
2022-11-29T19:38:56.074Z,102227.28
2022-11-29T19:41:31.183Z,102242.03
2022-11-29T19:43:59.923Z,102238.56
2022-11-29T19:46:30.491Z,102241.16
2022-11-29T19:48:58.866Z,102241.16
2022-11-29T19:51:28.048Z,102230.75
2022-11-29T19:53:56.920Z,102234.25
2022-11-29T19:56:23.473Z,102243.78
2022-11-29T19:58:50.755Z,102244.69
2022-11-29T20:01:23.009Z,102243.78
2022-11-29T20:04:03.145Z,102250.72
2022-11-29T20:06:31.359Z,102252.50
2022-11-29T20:09:04.318Z,102255.94
2022-11-29T20:11:34.139Z,102253.34
2022-11-29T20:14:15.462Z,102253.41
2022-11-29T20:16:51.672Z,102256.03
2022-11-29T20:19:18.566Z,102256.03
2022-11-29T20:21:48.235Z,102257.72
2022-11-29T20:24:17.497Z,102258.63
2022-11-29T20:26:47.342Z,102249.03
2022-11-29T20:29:17.510Z,102256.81
2022-11-29T20:31:50.769Z,102255.88
2022-11-29T20:34:19.114Z,102259.41
2022-11-29T20:37:22.885Z,102262.00
2022-11-29T20:39:59.814Z,102267.19
2022-11-29T20:42:31.459Z,102256.81
2022-11-29T20:45:04.994Z,102265.44
2022-11-29T20:47:47.091Z,102262.00
2022-11-29T20:50:23.259Z,102270.66
2022-11-29T20:52:59.717Z,102272.34
2022-11-29T20:55:27.009Z,102277.56
2022-11-29T20:57:53.719Z,102279.31
2022-11-29T21:00:22.686Z,102281.91
2022-11-29T21:02:50.062Z,102277.56
2022-11-29T21:05:16.835Z,102279.25
2022-11-29T21:07:44.055Z,102275.78
2022-11-29T21:10:11.771Z,102279.25
2022-11-29T21:12:39.295Z,102278.31
2022-11-29T21:15:07.677Z,102275.78
2022-11-29T21:17:34.560Z,102281.78
2022-11-29T21:20:03.910Z,102283.53
2022-11-29T21:22:38.423Z,102289.59
2022-11-29T21:25:38.400Z,102302.63
2022-11-29T21:28:10.677Z,102293.03
2022-11-29T21:30:43.015Z,102300.03
2022-11-29T21:33:12.508Z,102297.38
2022-11-29T21:35:40.113Z,102297.38
2022-11-29T21:38:20.168Z,102301.75
2022-11-29T21:40:54.413Z,102306.97
2022-11-29T21:44:04.432Z,102300.91
2022-11-29T21:46:17.555Z,102302.53
2022-11-29T21:48:44.558Z,102301.66
2022-11-29T21:51:11.943Z,102308.56
2022-11-29T21:53:40.083Z,102304.22
2022-11-29T21:56:09.145Z,102304.28
2022-11-29T21:58:37.821Z,102314.63
2022-11-29T22:01:13.905Z,102309.47
2022-11-29T22:03:42.100Z,102312.03
2022-11-29T22:06:11.810Z,102312.88
2022-11-29T22:08:40.484Z,102319.00
2022-11-29T22:11:12.835Z,102320.69
2022-11-29T22:14:00.867Z,102319.00
2022-11-29T22:16:28.985Z,102316.34
2022-11-29T22:18:55.539Z,102314.63
2022-11-29T22:21:22.424Z,102301.59
2022-11-29T22:23:48.926Z,102317.22
2022-11-29T22:26:15.581Z,102312.00
2022-11-29T22:28:42.112Z,102312.84
2022-11-29T22:31:12.072Z,102311.94
2022-11-29T22:33:39.258Z,102314.56
2022-11-29T22:36:11.283Z,102318.00
2022-11-29T22:38:39.016Z,102321.44
2022-11-29T22:41:11.560Z,102321.47
2022-11-29T22:43:39.527Z,102317.16
2022-11-29T22:46:16.740Z,102326.75
2022-11-29T22:48:45.350Z,102328.53
2022-11-29T22:51:18.114Z,102313.78
2022-11-29T22:53:51.619Z,102326.81
2022-11-29T22:56:18.797Z,102332.06
2022-11-29T22:58:46.508Z,102333.81
2022-11-29T23:01:18.812Z,102339.91
2022-11-29T23:03:48.393Z,102337.38
2022-11-29T23:06:18.582Z,102340.00
2022-11-29T23:08:49.892Z,102337.41
2022-11-29T23:11:22.981Z,102344.38
2022-11-29T23:13:52.241Z,102343.50
2022-11-29T23:16:25.289Z,102340.06
2022-11-29T23:18:56.107Z,102343.50
2022-11-29T23:21:25.541Z,102347.91
2022-11-29T23:23:56.275Z,102350.50
2022-11-29T23:26:45.007Z,102355.72
2022-11-29T23:29:19.637Z,102346.13
2022-11-29T23:31:47.523Z,102340.09
2022-11-29T23:34:15.750Z,102343.50
2022-11-29T23:36:49.682Z,102348.72
2022-11-29T23:39:20.846Z,102343.53
2022-11-29T23:41:47.338Z,102340.13
2022-11-29T23:44:13.843Z,102348.88
2022-11-29T23:46:40.403Z,102351.50
2022-11-29T23:49:06.954Z,102354.16
2022-11-29T23:51:42.190Z,102355.06
2022-11-29T23:54:08.887Z,102362.88
2022-11-29T23:56:36.184Z,102350.72
2022-11-29T23:59:03.097Z,102350.72
